createdAt,value
2019-05-22T00:01:13.637Z,15.17
2019-05-22T00:03:57.029Z,15.97
2019-05-22T00:06:30.277Z,14.60
2019-05-22T00:08:59.394Z,16.03
2019-05-22T00:11:29.753Z,15.77
2019-05-22T00:14:00.174Z,16.10
2019-05-22T00:16:30.653Z,17.37
2019-05-22T00:18:59.526Z,16.07
2019-05-22T00:21:28.640Z,15.63
2019-05-22T00:23:59.633Z,16.97
2019-05-22T00:26:28.313Z,16.47
2019-05-22T00:28:57.340Z,16.40
2019-05-22T00:31:27.069Z,17.23
2019-05-22T00:33:58.170Z,17.03
2019-05-22T00:36:29.286Z,17.87
2019-05-22T00:38:58.224Z,17.67
2019-05-22T00:41:28.744Z,17.13
2019-05-22T00:43:59.457Z,17.07
2019-05-22T00:46:28.420Z,15.87
2019-05-22T00:48:57.561Z,17.13
2019-05-22T00:51:37.526Z,14.60
2019-05-22T00:54:36.708Z,15.77
2019-05-22T00:57:22.882Z,15.83
2019-05-22T00:59:52.890Z,16.37
2019-05-22T01:02:26.709Z,16.40
2019-05-22T01:04:57.418Z,15.70
2019-05-22T01:07:36.995Z,16.13
2019-05-22T01:10:06.812Z,16.73
2019-05-22T01:12:42.364Z,13.83
2019-05-22T01:15:14.561Z,14.70
2019-05-22T01:17:44.802Z,12.90
2019-05-22T01:20:16.469Z,14.83
2019-05-22T01:22:48.411Z,16.10
2019-05-22T01:25:21.252Z,13.83
2019-05-22T01:27:50.224Z,14.60
2019-05-22T01:30:43.905Z,13.97
2019-05-22T01:33:16.608Z,13.37
2019-05-22T01:35:53.114Z,14.00
2019-05-22T01:38:23.569Z,14.47
2019-05-22T01:40:57.407Z,14.20
2019-05-22T01:43:28.187Z,14.23
2019-05-22T01:46:01.209Z,14.10
2019-05-22T01:48:35.849Z,12.60
2019-05-22T01:51:06.425Z,13.60
2019-05-22T01:53:38.642Z,13.33
2019-05-22T01:56:11.151Z,14.97
2019-05-22T01:58:44.794Z,15.20
2019-05-22T02:01:16.125Z,14.00
2019-05-22T02:03:46.973Z,13.33
2019-05-22T02:06:17.821Z,12.27
2019-05-22T02:08:55.409Z,12.67
2019-05-22T02:11:27.209Z,13.10
2019-05-22T02:14:06.185Z,12.10
2019-05-22T02:16:36.595Z,11.27
2019-05-22T02:19:07.011Z,12.40
2019-05-22T02:21:35.832Z,12.00
2019-05-22T02:24:06.225Z,11.13
2019-05-22T02:26:35.550Z,9.83
2019-05-22T02:29:06.199Z,11.00
2019-05-22T02:31:36.253Z,10.60
2019-05-22T02:34:42.479Z,11.10
2019-05-22T02:37:12.618Z,11.73
2019-05-22T02:39:41.065Z,11.53
2019-05-22T02:42:18.978Z,11.40
2019-05-22T02:44:48.539Z,14.13
2019-05-22T02:47:20.980Z,13.97
2019-05-22T02:49:50.210Z,15.77
2019-05-22T02:52:20.060Z,14.77
2019-05-22T02:54:49.802Z,14.17
2019-05-22T02:57:19.192Z,16.80
2019-05-22T02:59:48.522Z,14.17
2019-05-22T03:02:18.325Z,13.70
2019-05-22T03:04:55.914Z,15.43
2019-05-22T03:07:24.389Z,13.77
2019-05-22T03:09:53.390Z,14.43
2019-05-22T03:12:24.553Z,14.87
2019-05-22T03:14:54.459Z,14.93
2019-05-22T03:17:30.587Z,13.77
2019-05-22T03:20:01.746Z,10.73
2019-05-22T03:22:37.149Z,13.13
2019-05-22T03:25:10.979Z,12.83
2019-05-22T03:27:40.709Z,12.27
2019-05-22T03:30:14.739Z,11.77
2019-05-22T03:32:45.330Z,12.37
2019-05-22T03:35:13.810Z,11.73
2019-05-22T03:37:43.485Z,14.10
2019-05-22T03:40:12.993Z,12.57
2019-05-22T03:42:42.638Z,11.03
2019-05-22T03:45:13.475Z,13.40
2019-05-22T03:47:42.137Z,14.67
2019-05-22T03:50:11.617Z,14.73
2019-05-22T03:52:40.105Z,12.90
2019-05-22T03:55:11.037Z,13.23
2019-05-22T03:57:40.027Z,13.83
2019-05-22T04:00:13.512Z,15.33
2019-05-22T04:02:43.297Z,14.90
2019-05-22T04:05:14.554Z,16.47
2019-05-22T04:07:43.798Z,16.00
2019-05-22T04:10:13.812Z,14.60
2019-05-22T04:12:43.146Z,14.90
2019-05-22T04:15:12.338Z,17.80
2019-05-22T04:17:44.407Z,13.90
2019-05-22T04:20:16.827Z,16.00
2019-05-22T04:22:45.702Z,13.90
2019-05-22T04:25:14.543Z,15.77
2019-05-22T04:27:43.770Z,15.63
2019-05-22T04:30:14.273Z,14.97
2019-05-22T04:32:44.670Z,13.30
2019-05-22T04:35:17.258Z,15.27
2019-05-22T04:37:49.122Z,14.53
2019-05-22T04:40:57.896Z,13.87
2019-05-22T04:43:30.802Z,12.77
2019-05-22T04:46:01.281Z,15.27
2019-05-22T04:48:32.603Z,15.27
2019-05-22T04:51:23.876Z,14.53
2019-05-22T04:53:52.313Z,12.80
2019-05-22T04:56:22.540Z,12.20
2019-05-22T04:58:52.275Z,12.13
2019-05-22T05:01:22.201Z,12.60
2019-05-22T05:03:53.442Z,11.10
2019-05-22T05:06:25.966Z,11.07
2019-05-22T05:08:56.369Z,10.40
2019-05-22T05:11:26.075Z,10.67
2019-05-22T05:13:55.364Z,9.77
2019-05-22T05:16:24.426Z,10.00
2019-05-22T05:18:53.330Z,10.37
2019-05-22T05:21:22.239Z,10.07
2019-05-22T05:23:51.086Z,11.10
2019-05-22T05:26:20.405Z,10.70
2019-05-22T05:28:49.825Z,11.33
2019-05-22T05:31:19.089Z,10.57
2019-05-22T05:34:23.466Z,9.90
2019-05-22T05:36:52.717Z,9.23
2019-05-22T05:40:09.076Z,10.13
2019-05-22T05:42:38.577Z,8.87
2019-05-22T05:45:13.337Z,10.00
2019-05-22T05:47:41.635Z,9.17
2019-05-22T05:50:13.006Z,10.13
2019-05-22T05:52:42.583Z,9.13
2019-05-22T05:55:12.851Z,8.33
2019-05-22T05:58:32.883Z,9.47
2019-05-22T06:01:11.617Z,9.93
2019-05-22T06:03:42.270Z,9.77
2019-05-22T06:06:32.809Z,9.57
2019-05-22T06:09:02.050Z,8.83
2019-05-22T06:11:50.256Z,8.97
2019-05-22T06:14:20.626Z,10.27
2019-05-22T06:17:44.842Z,11.17
2019-05-22T06:20:19.112Z,9.90
2019-05-22T06:23:45.877Z,10.27
2019-05-22T06:26:28.271Z,12.10
2019-05-22T06:28:58.394Z,11.33
2019-05-22T06:31:40.366Z,12.00
2019-05-22T06:34:09.221Z,12.63
2019-05-22T06:36:37.520Z,10.97
2019-05-22T06:39:13.661Z,10.37
2019-05-22T06:41:43.982Z,10.17
2019-05-22T06:44:38.905Z,9.03
2019-05-22T06:47:11.297Z,9.03
2019-05-22T06:49:52.767Z,9.10
2019-05-22T06:52:22.365Z,9.80
2019-05-22T06:54:52.701Z,8.33
2019-05-22T06:57:22.934Z,9.00
2019-05-22T07:00:11.356Z,8.40
2019-05-22T07:02:23.550Z,9.07
2019-05-22T07:04:52.671Z,7.77
2019-05-22T07:07:24.109Z,8.50
2019-05-22T07:09:54.725Z,8.77
2019-05-22T07:12:24.754Z,6.93
2019-05-22T07:15:46.351Z,7.47
2019-05-22T07:18:17.737Z,8.33
2019-05-22T07:20:47.469Z,7.73
2019-05-22T07:23:22.678Z,8.13
2019-05-22T07:25:52.158Z,8.53
2019-05-22T07:28:22.346Z,9.13
2019-05-22T07:30:51.460Z,9.27
2019-05-22T07:33:20.855Z,8.00
2019-05-22T07:36:08.487Z,7.93
2019-05-22T07:38:23.001Z,8.63
2019-05-22T07:40:52.807Z,9.60
2019-05-22T07:43:23.127Z,8.43
2019-05-22T07:45:52.579Z,7.87
2019-05-22T07:48:23.993Z,9.87
2019-05-22T07:50:55.189Z,8.97
2019-05-22T07:53:24.593Z,8.53
2019-05-22T07:55:55.099Z,8.73
2019-05-22T07:58:25.601Z,9.47
2019-05-22T08:00:57.309Z,9.93
2019-05-22T08:03:27.549Z,8.97
2019-05-22T08:05:57.686Z,9.97
2019-05-22T08:08:27.595Z,9.87
2019-05-22T08:10:57.901Z,8.97
2019-05-22T08:13:27.757Z,7.30
2019-05-22T08:15:57.594Z,9.50
2019-05-22T08:18:27.945Z,9.13
2019-05-22T08:20:57.301Z,9.00
2019-05-22T08:23:28.220Z,8.47
2019-05-22T08:25:59.483Z,8.67
2019-05-22T08:28:31.156Z,9.27
2019-05-22T08:31:01.578Z,9.00
2019-05-22T08:33:32.089Z,9.23
2019-05-22T08:36:03.099Z,8.33
2019-05-22T08:38:33.615Z,8.53
2019-05-22T08:41:05.216Z,9.57
2019-05-22T08:43:52.618Z,9.13
2019-05-22T08:46:07.269Z,9.37
2019-05-22T08:48:38.619Z,9.37
2019-05-22T08:51:09.514Z,10.50
2019-05-22T08:53:47.679Z,9.50
2019-05-22T08:56:10.877Z,9.67
2019-05-22T08:58:44.164Z,9.20
2019-05-22T09:01:13.877Z,8.37
2019-05-22T09:03:43.449Z,9.47
2019-05-22T09:06:12.449Z,9.87
2019-05-22T09:08:40.856Z,10.63
2019-05-22T09:11:09.697Z,10.60
2019-05-22T09:13:38.739Z,9.77
2019-05-22T09:16:09.795Z,9.53
2019-05-22T09:18:38.285Z,9.67
2019-05-22T09:21:07.256Z,10.20
2019-05-22T09:23:36.666Z,9.93
2019-05-22T09:26:06.193Z,10.17
2019-05-22T09:28:35.216Z,10.50
2019-05-22T09:31:04.360Z,10.93
2019-05-22T09:33:32.759Z,10.73
2019-05-22T09:36:01.147Z,10.23
2019-05-22T09:38:30.082Z,10.47
2019-05-22T09:40:59.554Z,11.80
2019-05-22T09:43:28.430Z,11.40
2019-05-22T09:45:56.738Z,12.10
2019-05-22T09:48:25.132Z,10.50
2019-05-22T09:50:53.517Z,11.63
2019-05-22T09:53:22.713Z,12.07
2019-05-22T09:55:51.774Z,11.50
2019-05-22T09:58:20.182Z,10.77
2019-05-22T10:00:48.954Z,11.00
2019-05-22T10:03:19.063Z,10.93
2019-05-22T10:05:48.262Z,11.77
2019-05-22T10:08:17.211Z,10.13
2019-05-22T10:10:45.600Z,10.80
2019-05-22T10:13:14.534Z,10.37
2019-05-22T10:15:43.428Z,11.40
2019-05-22T10:18:12.749Z,10.60
2019-05-22T10:20:41.669Z,9.90
2019-05-22T10:23:16.202Z,10.63
2019-05-22T10:25:41.909Z,10.30
2019-05-22T10:28:11.707Z,11.30
2019-05-22T10:30:40.718Z,9.50
2019-05-22T10:33:09.831Z,11.03
2019-05-22T10:35:39.377Z,10.87
2019-05-22T10:38:08.417Z,10.43
2019-05-22T10:40:37.281Z,10.93
2019-05-22T10:43:06.156Z,12.00
2019-05-22T10:45:35.101Z,12.50
2019-05-22T10:48:04.440Z,11.57
2019-05-22T10:50:32.900Z,12.83
2019-05-22T10:53:02.298Z,11.17
2019-05-22T10:55:31.453Z,11.37
2019-05-22T10:58:00.754Z,11.77
2019-05-22T11:00:30.389Z,12.83
2019-05-22T11:02:59.330Z,12.07
2019-05-22T11:05:28.323Z,11.07
2019-05-22T11:07:57.639Z,9.87
2019-05-22T11:10:27.488Z,11.17
2019-05-22T11:12:56.961Z,10.60
2019-05-22T11:15:26.186Z,10.67
2019-05-22T11:17:58.182Z,10.13
2019-05-22T11:20:27.781Z,10.17
2019-05-22T11:22:57.291Z,9.97
2019-05-22T11:25:26.028Z,11.70
2019-05-22T11:27:54.858Z,10.23
2019-05-22T11:30:23.460Z,11.00
2019-05-22T11:32:53.388Z,11.37
2019-05-22T11:35:25.287Z,11.73
2019-05-22T11:37:53.875Z,11.17
2019-05-22T11:40:22.665Z,10.53
2019-05-22T11:42:52.809Z,10.13
2019-05-22T11:45:22.578Z,9.77
2019-05-22T11:47:52.444Z,10.10
2019-05-22T11:50:23.402Z,10.90
2019-05-22T11:52:52.702Z,10.97
2019-05-22T11:55:22.944Z,10.93
2019-05-22T11:57:52.357Z,9.80
2019-05-22T12:00:22.133Z,9.40
2019-05-22T12:02:52.108Z,9.50
2019-05-22T12:05:21.102Z,11.07
2019-05-22T12:07:51.236Z,11.57
2019-05-22T12:10:21.947Z,10.50
2019-05-22T12:12:52.036Z,9.93
2019-05-22T12:15:23.866Z,9.10
2019-05-22T12:17:52.905Z,9.80
2019-05-22T12:20:23.383Z,8.87
2019-05-22T12:22:52.545Z,7.80
2019-05-22T12:25:21.851Z,8.23
2019-05-22T12:27:50.340Z,8.67
2019-05-22T12:30:20.203Z,9.07
2019-05-22T12:32:48.697Z,8.93
2019-05-22T12:35:19.141Z,9.53
2019-05-22T12:37:48.202Z,9.57
2019-05-22T12:40:22.756Z,8.80
2019-05-22T12:42:52.811Z,10.40
2019-05-22T12:45:27.707Z,10.17
2019-05-22T12:47:56.542Z,8.90
2019-05-22T12:50:27.676Z,8.93
2019-05-22T12:52:56.829Z,9.13
2019-05-22T12:55:25.868Z,9.83
2019-05-22T12:57:55.603Z,9.93
2019-05-22T13:00:26.771Z,9.33
2019-05-22T13:02:56.425Z,9.10
2019-05-22T13:05:26.241Z,8.30
2019-05-22T13:07:58.570Z,8.27
2019-05-22T13:10:27.487Z,7.30
2019-05-22T13:12:55.986Z,7.20
2019-05-22T13:15:25.698Z,6.70
2019-05-22T13:17:57.818Z,6.87
2019-05-22T13:20:42.318Z,7.37
2019-05-22T13:23:05.559Z,7.10
2019-05-22T13:25:36.818Z,7.80
2019-05-22T13:28:06.850Z,7.40
2019-05-22T13:30:37.644Z,7.27
2019-05-22T13:33:08.305Z,7.47
2019-05-22T13:35:37.026Z,7.00
2019-05-22T13:38:06.949Z,7.03
2019-05-22T13:40:36.428Z,6.73
2019-05-22T13:43:05.685Z,7.17
2019-05-22T13:45:34.781Z,6.73
2019-05-22T13:48:04.121Z,6.73
2019-05-22T13:50:33.304Z,6.40
2019-05-22T13:53:04.632Z,7.10
2019-05-22T13:55:33.752Z,7.10
2019-05-22T13:58:03.641Z,6.53
2019-05-22T14:00:32.601Z,7.70
2019-05-22T14:03:00.982Z,6.47
2019-05-22T14:05:30.786Z,7.73
2019-05-22T14:08:00.521Z,6.83
2019-05-22T14:10:30.285Z,6.03
2019-05-22T14:12:58.679Z,7.07
2019-05-22T14:15:27.263Z,7.27
2019-05-22T14:17:55.657Z,6.57
2019-05-22T14:20:25.308Z,6.47
2019-05-22T14:22:53.777Z,7.47
2019-05-22T14:25:23.646Z,5.80
2019-05-22T14:27:52.524Z,7.07
2019-05-22T14:30:23.877Z,7.07
2019-05-22T14:32:52.731Z,6.83
2019-05-22T14:37:51.515Z,7.70
2019-05-22T14:40:19.989Z,6.60
2019-05-22T14:42:49.189Z,7.33
2019-05-22T14:45:18.386Z,6.90
2019-05-22T14:47:47.400Z,6.77
2019-05-22T14:50:17.132Z,7.23
2019-05-22T14:52:45.962Z,7.27
2019-05-22T14:55:15.646Z,7.10
2019-05-22T14:57:45.132Z,6.63
2019-05-22T15:00:15.217Z,6.93
2019-05-22T15:02:44.425Z,7.23
2019-05-22T15:05:13.814Z,6.60
2019-05-22T15:07:42.929Z,8.03
2019-05-22T15:10:16.873Z,7.50
2019-05-22T15:12:44.019Z,8.00
2019-05-22T15:15:13.269Z,7.27
2019-05-22T15:17:42.389Z,7.73
2019-05-22T15:20:15.886Z,9.03
2019-05-22T15:22:45.073Z,7.47
2019-05-22T15:25:14.204Z,7.63
2019-05-22T15:27:44.362Z,6.90
2019-05-22T15:30:14.508Z,8.40
2019-05-22T15:32:43.832Z,8.20
2019-05-22T15:35:12.744Z,7.77
2019-05-22T15:37:41.864Z,6.63
2019-05-22T15:40:11.781Z,6.73
2019-05-22T15:42:42.759Z,6.60
2019-05-22T15:45:13.817Z,6.50
2019-05-22T15:47:54.857Z,7.53
2019-05-22T15:50:19.397Z,6.67
2019-05-22T15:52:53.400Z,6.40
2019-05-22T15:55:24.811Z,6.43
2019-05-22T15:57:55.838Z,7.23
2019-05-22T16:00:26.989Z,6.23
2019-05-22T16:02:55.458Z,6.10
2019-05-22T16:05:24.737Z,6.97
2019-05-22T16:07:54.189Z,6.57
2019-05-22T16:10:25.323Z,6.93
2019-05-22T16:12:56.194Z,7.67
2019-05-22T16:15:26.689Z,7.20
2019-05-22T16:18:11.234Z,7.93
2019-05-22T16:20:28.101Z,6.17
2019-05-22T16:22:57.581Z,5.73
2019-05-22T16:25:27.389Z,6.90
2019-05-22T16:27:56.498Z,6.23
2019-05-22T16:30:27.728Z,6.20
2019-05-22T16:32:57.719Z,6.50
2019-05-22T16:35:27.774Z,5.43
2019-05-22T16:37:58.026Z,4.90
2019-05-22T16:40:27.185Z,4.53
2019-05-22T16:42:58.137Z,5.63
2019-05-22T16:45:26.528Z,4.73
2019-05-22T16:47:56.499Z,4.20
2019-05-22T16:50:25.994Z,4.40
2019-05-22T16:52:56.153Z,4.10
2019-05-22T16:55:25.408Z,4.53
2019-05-22T16:57:55.288Z,4.90
2019-05-22T17:00:26.390Z,4.40
2019-05-22T17:02:55.466Z,3.97
2019-05-22T17:05:25.091Z,3.47
2019-05-22T17:07:54.473Z,3.90
2019-05-22T17:10:24.046Z,4.33
2019-05-22T17:12:53.501Z,4.63
2019-05-22T17:15:24.117Z,4.20
2019-05-22T17:17:53.899Z,3.80
2019-05-22T17:20:24.480Z,4.23
2019-05-22T17:22:54.095Z,5.47
2019-05-22T17:25:23.038Z,3.90
2019-05-22T17:27:52.652Z,4.07
2019-05-22T17:30:22.804Z,4.60
2019-05-22T17:32:51.660Z,5.50
2019-05-22T17:35:21.502Z,3.43
2019-05-22T17:37:50.659Z,3.90
2019-05-22T17:40:21.037Z,3.13
2019-05-22T17:42:52.280Z,3.60
2019-05-22T17:45:25.561Z,3.83
2019-05-22T17:47:54.845Z,4.10
2019-05-22T17:50:27.269Z,3.80
2019-05-22T17:52:56.474Z,3.80
2019-05-22T17:55:25.599Z,3.23
2019-05-22T17:57:54.313Z,4.30
2019-05-22T18:00:29.934Z,3.23
2019-05-22T18:02:58.504Z,4.07
2019-05-22T18:05:28.401Z,3.10
2019-05-22T18:07:56.705Z,4.70
2019-05-22T18:10:25.851Z,4.07
2019-05-22T18:12:54.210Z,3.43
2019-05-22T18:15:23.713Z,3.00
2019-05-22T18:17:52.719Z,3.40
2019-05-22T18:20:22.470Z,3.57
2019-05-22T18:22:51.493Z,3.53
2019-05-22T18:25:20.796Z,3.70
2019-05-22T18:27:50.858Z,4.50
2019-05-22T18:30:20.358Z,3.40
2019-05-22T18:32:49.185Z,4.40
2019-05-22T18:35:17.633Z,4.50
2019-05-22T18:37:46.025Z,4.17
2019-05-22T18:40:16.028Z,4.10
2019-05-22T18:42:44.586Z,4.27
2019-05-22T18:45:13.442Z,4.37
2019-05-22T18:47:42.804Z,5.27
2019-05-22T18:50:12.010Z,4.07
2019-05-22T18:52:43.018Z,4.37
2019-05-22T18:55:11.900Z,4.03
2019-05-22T18:57:40.864Z,5.47
2019-05-22T19:00:09.243Z,4.80
2019-05-22T19:02:37.646Z,5.70
2019-05-22T19:05:06.595Z,5.07
2019-05-22T19:07:35.118Z,4.37
2019-05-22T19:10:03.696Z,4.37
2019-05-22T19:12:32.002Z,6.00
2019-05-22T19:15:01.079Z,4.80
2019-05-22T19:17:30.697Z,5.70
2019-05-22T19:19:59.961Z,4.27
2019-05-22T19:22:28.437Z,4.80
2019-05-22T19:24:57.564Z,5.10
2019-05-22T19:27:26.423Z,3.77
2019-05-22T19:29:55.200Z,4.50
2019-05-22T19:32:24.373Z,4.87
2019-05-22T19:34:53.131Z,4.83
2019-05-22T19:37:22.156Z,5.13
2019-05-22T19:39:51.493Z,4.47
2019-05-22T19:42:19.877Z,4.07
2019-05-22T19:44:49.189Z,5.00
2019-05-22T19:47:18.231Z,4.17
2019-05-22T19:49:47.171Z,4.60
2019-05-22T19:52:21.666Z,5.07
2019-05-22T19:54:49.337Z,4.53
2019-05-22T19:57:18.592Z,3.83
2019-05-22T19:59:47.949Z,4.47
2019-05-22T20:02:18.203Z,4.33
2019-05-22T20:04:47.084Z,4.17
2019-05-22T20:07:17.598Z,4.00
2019-05-22T20:09:47.119Z,4.63
2019-05-22T20:12:16.987Z,5.03
2019-05-22T20:14:46.293Z,5.37
2019-05-22T20:17:15.228Z,4.70
2019-05-22T20:19:44.149Z,5.03
2019-05-22T20:22:14.757Z,4.63
2019-05-22T20:24:44.008Z,4.70
2019-05-22T20:27:13.243Z,4.83
2019-05-22T20:29:42.194Z,4.97
2019-05-22T20:32:12.946Z,5.17
2019-05-22T20:34:42.567Z,4.37
2019-05-22T20:37:12.318Z,5.30
2019-05-22T20:39:41.209Z,4.53
2019-05-22T20:42:11.309Z,5.17
2019-05-22T20:44:39.621Z,4.93
2019-05-22T20:47:11.157Z,4.90
2019-05-22T20:49:42.979Z,5.23
2019-05-22T20:52:12.721Z,4.90
2019-05-22T20:54:43.424Z,4.53
2019-05-22T20:57:12.608Z,4.67
2019-05-22T20:59:44.013Z,4.70
2019-05-22T21:02:14.049Z,4.73
2019-05-22T21:04:45.890Z,5.00
2019-05-22T21:07:17.926Z,4.83
2019-05-22T21:09:47.195Z,4.87
2019-05-22T21:12:17.844Z,5.00
2019-05-22T21:14:46.681Z,4.87
2019-05-22T21:17:15.637Z,5.23
2019-05-22T21:19:46.210Z,4.77
2019-05-22T21:22:19.307Z,4.50
2019-05-22T21:24:49.866Z,5.07
2019-05-22T21:27:18.715Z,5.30
2019-05-22T21:29:47.473Z,5.37
2019-05-22T21:32:16.997Z,5.20
2019-05-22T21:34:45.994Z,4.90
2019-05-22T21:37:16.072Z,5.10
2019-05-22T21:39:45.178Z,5.53
2019-05-22T21:42:14.638Z,5.37
2019-05-22T21:44:43.521Z,5.37
2019-05-22T21:47:13.618Z,5.37
2019-05-22T21:49:44.170Z,4.97
2019-05-22T21:52:13.414Z,5.10
2019-05-22T21:54:42.944Z,6.03
2019-05-22T21:57:12.594Z,5.30
2019-05-22T21:59:42.288Z,5.57
2019-05-22T22:02:18.543Z,5.50
2019-05-22T22:04:47.773Z,5.20
2019-05-22T22:07:17.253Z,5.50
2019-05-22T22:09:46.115Z,5.17
2019-05-22T22:12:18.165Z,4.97
2019-05-22T22:14:48.420Z,4.53
2019-05-22T22:17:18.980Z,5.80
2019-05-22T22:19:48.760Z,5.63
2019-05-22T22:22:26.831Z,5.17
2019-05-22T22:24:55.928Z,5.27
2019-05-22T22:27:25.012Z,4.90
2019-05-22T22:29:54.345Z,5.60
2019-05-22T22:32:24.856Z,5.00
2019-05-22T22:34:54.096Z,5.70
2019-05-22T22:37:24.682Z,5.83
2019-05-22T22:39:56.488Z,5.80
2019-05-22T22:42:29.109Z,5.03
2019-05-22T22:44:58.923Z,5.20
2019-05-22T22:47:33.590Z,6.03
2019-05-22T22:50:02.780Z,7.30
2019-05-22T22:52:32.417Z,5.60
2019-05-22T22:55:01.537Z,5.03
2019-05-22T22:57:30.977Z,5.80
2019-05-22T22:59:59.380Z,6.03
2019-05-22T23:02:30.670Z,5.57
2019-05-22T23:05:00.190Z,4.87
2019-05-22T23:07:31.601Z,5.63
2019-05-22T23:10:01.734Z,4.80
2019-05-22T23:12:32.358Z,5.53
2019-05-22T23:15:01.569Z,5.17
2019-05-22T23:17:30.907Z,5.10
2019-05-22T23:19:58.597Z,5.77
2019-05-22T23:22:28.505Z,6.03
2019-05-22T23:24:59.714Z,6.53
2019-05-22T23:27:31.272Z,5.83
2019-05-22T23:30:00.941Z,5.30
2019-05-22T23:32:31.460Z,7.07
2019-05-22T23:35:00.717Z,6.53
2019-05-22T23:37:29.760Z,5.50
2019-05-22T23:39:59.157Z,5.87
2019-05-22T23:42:36.093Z,5.73
2019-05-22T23:45:10.306Z,5.73
2019-05-22T23:47:48.121Z,6.77
2019-05-22T23:50:17.037Z,7.70
2019-05-22T23:52:46.468Z,7.53
2019-05-22T23:55:15.901Z,6.20
2019-05-22T23:57:47.190Z,6.77
